createdAt,value
2022-12-23T00:00:21.706Z,69.13
2022-12-23T00:01:24.394Z,61.28
2022-12-23T00:02:25.330Z,61.13
2022-12-23T00:03:26.980Z,56.10
2022-12-23T00:04:27.992Z,61.78
2022-12-23T00:05:34.164Z,66.05
2022-12-23T00:06:38.594Z,65.85
2022-12-23T00:07:39.464Z,67.78
2022-12-23T00:08:40.605Z,66.30
2022-12-23T00:09:41.490Z,68.78
2022-12-23T00:10:42.647Z,59.75
2022-12-23T00:12:11.347Z,64.00
2022-12-23T00:13:30.798Z,61.85
2022-12-23T00:14:49.975Z,66.90
2022-12-23T00:15:50.888Z,66.30
2022-12-23T00:16:52.760Z,57.73
2022-12-23T00:17:53.765Z,61.45
2022-12-23T00:18:55.028Z,57.75
2022-12-23T00:19:55.875Z,66.78
2022-12-23T00:20:57.707Z,53.70
2022-12-23T00:21:58.816Z,61.38
2022-12-23T00:23:05.437Z,58.65
2022-12-23T00:24:06.625Z,61.50
2022-12-23T00:25:07.512Z,62.60
2022-12-23T00:26:12.986Z,63.90
2022-12-23T00:27:13.852Z,63.50
2022-12-23T00:28:15.904Z,61.40
2022-12-23T00:30:17.815Z,55.65
2022-12-23T00:31:19.225Z,60.42
2022-12-23T00:32:20.815Z,64.28
2022-12-23T00:33:22.769Z,57.65
2022-12-23T00:34:23.788Z,57.78
2022-12-23T00:35:24.939Z,56.05
2022-12-23T00:36:27.221Z,59.90
2022-12-23T00:37:29.694Z,62.50
2022-12-23T00:38:49.111Z,58.70
2022-12-23T00:40:08.435Z,60.03
2022-12-23T00:41:29.061Z,61.95
2022-12-23T00:42:48.578Z,57.80
2022-12-23T00:43:49.752Z,55.03
2022-12-23T00:44:50.583Z,57.50
2022-12-23T00:45:51.778Z,61.63
2022-12-23T00:46:52.679Z,61.22
2022-12-23T00:48:12.737Z,65.30
2022-12-23T00:49:33.393Z,63.95
2022-12-23T00:50:36.043Z,62.67
2022-12-23T00:51:36.909Z,58.67
2022-12-23T00:52:38.024Z,59.07
2022-12-23T00:53:38.854Z,58.85
2022-12-23T00:54:40.360Z,59.17
2022-12-23T00:55:41.211Z,58.15
2022-12-23T00:56:42.395Z,59.97
2022-12-23T00:57:43.273Z,63.67
2022-12-23T00:58:44.398Z,57.70
2022-12-23T00:59:45.284Z,57.20
2022-12-23T01:01:04.981Z,57.97
2022-12-23T01:02:24.180Z,62.85
2022-12-23T01:03:44.352Z,61.25
2022-12-23T01:05:03.756Z,58.45
2022-12-23T01:06:05.037Z,58.33
2022-12-23T01:07:06.236Z,58.80
2022-12-23T01:08:08.301Z,60.13
2022-12-23T01:10:10.246Z,49.58
2022-12-23T01:11:11.429Z,60.55
2022-12-23T01:12:12.759Z,62.80
2022-12-23T01:13:13.611Z,59.15
2022-12-23T01:14:14.898Z,51.42
2022-12-23T01:15:15.818Z,60.47
2022-12-23T01:16:17.994Z,57.30
2022-12-23T01:17:19.078Z,60.92
2022-12-23T01:18:20.251Z,58.03
2022-12-23T01:19:21.979Z,56.28
2022-12-23T01:20:23.311Z,55.30
2022-12-23T01:21:24.159Z,58.03
2022-12-23T01:22:25.320Z,61.70
2022-12-23T01:23:26.194Z,62.70
2022-12-23T01:24:27.592Z,62.92
2022-12-23T01:25:29.337Z,54.35
2022-12-23T01:26:30.481Z,54.80
2022-12-23T01:27:31.310Z,60.03
2022-12-23T01:28:32.995Z,55.50
2022-12-23T01:29:33.871Z,61.15
2022-12-23T01:30:35.039Z,55.17
2022-12-23T01:31:35.965Z,58.30
2022-12-23T01:32:37.129Z,63.08
2022-12-23T01:33:37.980Z,59.75
2022-12-23T01:34:39.788Z,56.33
2022-12-23T01:35:40.744Z,58.40
2022-12-23T01:36:41.887Z,62.75
2022-12-23T01:37:42.743Z,62.22
2022-12-23T01:38:44.162Z,56.78
2022-12-23T01:39:44.994Z,57.38
2022-12-23T01:40:46.167Z,61.30
2022-12-23T01:42:05.293Z,58.25
2022-12-23T01:43:06.203Z,54.80
2022-12-23T01:44:21.901Z,55.10
2022-12-23T01:45:27.285Z,61.65
2022-12-23T01:46:28.302Z,61.63
2022-12-23T01:47:31.673Z,57.67
2022-12-23T01:48:32.820Z,62.72
2022-12-23T01:49:33.675Z,60.97
2022-12-23T01:50:36.934Z,55.45
2022-12-23T01:53:06.475Z,54.55
2022-12-23T01:54:08.430Z,56.92
2022-12-23T01:55:10.301Z,57.20
2022-12-23T01:56:12.658Z,61.22
2022-12-23T01:57:13.840Z,67.63
2022-12-23T01:58:16.750Z,60.58
2022-12-23T01:59:32.653Z,61.80
2022-12-23T02:00:51.999Z,60.63
2022-12-23T02:02:19.906Z,61.10
2022-12-23T02:03:39.719Z,71.97
2022-12-23T02:04:41.468Z,58.92
2022-12-23T02:05:44.042Z,59.05
2022-12-23T02:07:04.165Z,65.93
2022-12-23T02:08:24.030Z,57.70
2022-12-23T02:09:26.197Z,64.22
2022-12-23T02:10:30.462Z,61.08
2022-12-23T02:11:37.330Z,61.13
2022-12-23T02:12:45.127Z,52.08
2022-12-23T02:14:06.322Z,64.75
2022-12-23T02:15:30.249Z,64.03
2022-12-23T02:16:34.217Z,66.32
2022-12-23T02:17:38.103Z,61.28
2022-12-23T02:18:48.472Z,62.88
2022-12-23T02:20:04.977Z,59.17
2022-12-23T02:21:13.448Z,64.28
2022-12-23T02:22:24.760Z,62.40
2022-12-23T02:23:46.744Z,57.30
2022-12-23T02:24:58.714Z,54.90
2022-12-23T02:26:07.414Z,60.65
2022-12-23T02:27:11.124Z,66.30
2022-12-23T02:28:33.140Z,66.78
2022-12-23T02:29:51.343Z,62.20
2022-12-23T02:30:59.273Z,63.20
2022-12-23T02:32:03.415Z,66.97
2022-12-23T02:33:19.420Z,65.18
2022-12-23T02:34:21.128Z,63.15
2022-12-23T02:35:25.948Z,66.38
2022-12-23T02:36:33.804Z,66.35
2022-12-23T02:37:36.910Z,67.07
2022-12-23T02:38:42.507Z,62.92
2022-12-23T02:39:47.944Z,70.55
2022-12-23T02:40:53.101Z,65.22
2022-12-23T02:41:56.499Z,67.05
2022-12-23T02:42:59.423Z,66.30
2022-12-23T02:44:02.096Z,60.55
2022-12-23T02:45:07.072Z,65.50
2022-12-23T02:46:11.817Z,65.40
2022-12-23T02:47:15.504Z,59.22
2022-12-23T02:48:18.875Z,65.68
2022-12-23T02:49:23.259Z,64.75
2022-12-23T02:50:27.807Z,59.05
2022-12-23T02:51:30.348Z,61.72
2022-12-23T02:52:33.659Z,66.22
2022-12-23T02:53:36.801Z,66.97
2022-12-23T02:54:40.401Z,55.42
2022-12-23T02:55:42.711Z,58.05
2022-12-23T02:56:46.108Z,65.97
2022-12-23T02:57:49.009Z,68.18
2022-12-23T02:58:52.971Z,65.97
2022-12-23T02:59:54.282Z,65.65
2022-12-23T03:00:56.287Z,64.43
2022-12-23T03:02:59.018Z,58.58
2022-12-23T03:04:00.254Z,61.97
2022-12-23T03:05:01.481Z,59.03
2022-12-23T03:06:06.028Z,69.70
2022-12-23T03:07:15.081Z,73.13
2022-12-23T03:08:21.888Z,63.55
2022-12-23T03:09:24.924Z,71.20
2022-12-23T03:10:29.915Z,70.18
2022-12-23T03:11:39.395Z,70.22
2022-12-23T03:12:46.798Z,69.57
2022-12-23T03:13:53.495Z,71.40
2022-12-23T03:15:03.478Z,70.80
2022-12-23T03:16:08.635Z,70.05
2022-12-23T03:17:17.461Z,72.10
2022-12-23T03:18:22.905Z,78.30
2022-12-23T03:19:25.917Z,72.28
2022-12-23T03:20:32.747Z,72.38
2022-12-23T03:21:37.982Z,77.00
2022-12-23T03:22:43.044Z,78.70
2022-12-23T03:23:55.037Z,74.70
2022-12-23T03:25:01.455Z,69.07
2022-12-23T03:26:07.041Z,79.63
2022-12-23T03:27:09.551Z,78.43
2022-12-23T03:28:11.500Z,78.07
2022-12-23T03:30:14.632Z,68.05
2022-12-23T03:31:24.564Z,73.20
2022-12-23T03:32:27.441Z,76.60
2022-12-23T03:33:30.582Z,73.68
2022-12-23T03:34:33.997Z,72.38
2022-12-23T03:35:36.290Z,79.55
2022-12-23T03:36:39.570Z,72.65
2022-12-23T03:37:43.009Z,82.00
2022-12-23T12:33:11.609Z,68.12
2022-12-23T12:34:20.889Z,73.75
2022-12-23T12:35:26.760Z,72.03
2022-12-23T12:36:32.413Z,72.03
2022-12-23T12:37:36.287Z,70.05
2022-12-23T12:38:38.455Z,70.95
2022-12-23T12:39:41.706Z,69.80
2022-12-23T12:40:45.296Z,74.47
2022-12-23T12:41:49.086Z,70.57
2022-12-23T12:42:53.173Z,72.65
2022-12-23T12:43:57.486Z,68.63
2022-12-23T12:45:02.524Z,68.60
2022-12-23T12:46:24.115Z,74.90
2022-12-23T12:47:52.629Z,74.82
2022-12-23T12:48:54.301Z,73.45
2022-12-23T12:49:58.478Z,68.20
2022-12-23T12:51:02.490Z,72.82
2022-12-23T12:52:08.124Z,73.60
2022-12-23T12:53:11.488Z,69.95
2022-12-23T12:54:15.473Z,76.50
2022-12-23T12:55:18.941Z,75.35
2022-12-23T12:56:24.594Z,81.72
2022-12-23T12:57:25.867Z,78.00
2022-12-23T12:58:26.771Z,73.90
2022-12-23T12:59:28.870Z,84.27
2022-12-23T13:01:45.718Z,80.13
2022-12-23T13:03:07.431Z,72.90
2022-12-23T13:04:25.423Z,77.13
2022-12-23T13:05:32.709Z,73.53
2022-12-23T13:06:39.357Z,78.30
2022-12-23T13:07:45.999Z,73.72
2022-12-23T13:08:55.336Z,76.15
2022-12-23T13:09:59.261Z,74.25
2022-12-23T13:11:02.001Z,76.75
2022-12-23T13:12:06.161Z,72.25
2022-12-23T13:13:13.429Z,76.93
2022-12-23T13:14:20.971Z,77.93
2022-12-23T13:15:24.703Z,76.30
2022-12-23T13:16:29.254Z,84.57
2022-12-23T13:17:32.963Z,80.97
2022-12-23T13:18:38.915Z,80.95
2022-12-23T13:19:43.624Z,80.20
2022-12-23T13:20:48.169Z,79.15
2022-12-23T13:21:51.153Z,73.80
2022-12-23T13:22:55.104Z,72.82
2022-12-23T13:24:03.841Z,80.07
2022-12-23T13:25:08.813Z,76.13
2022-12-23T13:26:13.540Z,83.60
2022-12-23T13:27:18.559Z,74.85
2022-12-23T13:28:26.540Z,75.60
2022-12-23T13:29:42.566Z,73.47
2022-12-23T13:30:46.403Z,80.57
2022-12-23T13:31:49.876Z,82.07
2022-12-23T13:33:11.940Z,79.68
2022-12-23T13:34:18.510Z,82.63
2022-12-23T13:35:25.650Z,80.68
2022-12-23T13:36:33.981Z,79.03
2022-12-23T13:37:39.016Z,73.70
2022-12-23T13:38:50.290Z,82.22
2022-12-23T13:39:55.688Z,87.80
2022-12-23T13:40:59.740Z,78.43
2022-12-23T13:42:05.712Z,82.30
2022-12-23T13:43:12.257Z,82.60
2022-12-23T13:44:14.426Z,82.57
2022-12-23T13:45:16.981Z,79.72
2022-12-23T13:46:21.254Z,74.90
2022-12-23T13:47:24.430Z,76.50
2022-12-23T13:48:30.501Z,85.03
2022-12-23T13:49:36.137Z,77.50
2022-12-23T13:50:42.243Z,79.57
2022-12-23T13:51:46.176Z,84.55
2022-12-23T13:52:57.255Z,87.82
2022-12-23T13:54:04.752Z,88.50
2022-12-23T13:55:11.122Z,80.25
2022-12-23T13:56:18.610Z,82.53
2022-12-23T13:57:24.056Z,82.22
2022-12-23T13:58:26.231Z,87.80
2022-12-23T13:59:37.255Z,87.25
2022-12-23T14:00:38.155Z,81.82
2022-12-23T14:03:43.601Z,84.07
2022-12-23T14:04:56.556Z,88.65
2022-12-23T14:05:58.422Z,88.82
2022-12-23T14:07:00.297Z,95.00
2022-12-23T14:08:03.555Z,95.13
2022-12-23T14:09:04.411Z,98.57
2022-12-23T14:10:20.848Z,93.17
2022-12-23T14:11:24.290Z,90.35
2022-12-23T14:12:26.877Z,89.55
2022-12-23T14:13:29.959Z,89.63
2022-12-23T14:14:31.329Z,90.45
2022-12-23T14:15:44.716Z,95.05
2022-12-23T14:16:51.432Z,97.78
2022-12-23T14:18:04.282Z,90.15
2022-12-23T14:19:24.370Z,98.30
2022-12-23T14:20:30.200Z,90.32
2022-12-23T14:21:38.084Z,99.60
2022-12-23T14:22:43.259Z,90.95
2022-12-23T14:23:51.910Z,106.20
2022-12-23T14:25:08.305Z,98.53
2022-12-23T14:26:30.771Z,101.00
2022-12-23T14:27:38.065Z,98.72
2022-12-23T14:28:57.367Z,103.60
2022-12-23T14:30:05.656Z,101.90
2022-12-23T14:31:27.000Z,112.72
2022-12-23T14:32:30.085Z,112.95
2022-12-23T14:33:32.698Z,109.50
2022-12-23T14:34:35.565Z,101.32
2022-12-23T14:37:11.532Z,110.72
2022-12-23T14:38:26.810Z,103.85
2022-12-23T14:39:31.199Z,108.68
2022-12-23T14:40:49.616Z,111.43
2022-12-23T14:41:51.613Z,111.35
2022-12-23T14:44:45.852Z,106.30
2022-12-23T14:45:47.847Z,104.13
2022-12-23T14:46:53.277Z,99.50
2022-12-23T14:47:54.574Z,101.75
2022-12-23T14:49:37.677Z,99.10
2022-12-23T14:50:40.683Z,105.45
2022-12-23T14:51:41.622Z,106.97
2022-12-23T14:52:51.544Z,101.60
2022-12-23T14:54:12.224Z,99.07
2022-12-23T14:55:32.663Z,110.43
2022-12-23T14:56:43.032Z,102.95
2022-12-23T14:57:43.986Z,104.05
2022-12-23T14:58:53.382Z,107.37
2022-12-23T14:59:59.502Z,105.78
2022-12-23T15:01:01.834Z,110.00
2022-12-23T15:02:03.983Z,114.07
2022-12-23T15:03:04.986Z,113.78
2022-12-23T15:04:08.695Z,111.37
2022-12-23T15:05:09.716Z,109.88
2022-12-23T15:06:13.944Z,120.63
2022-12-23T15:07:19.949Z,120.95
2022-12-23T15:08:28.397Z,120.78
2022-12-23T15:09:30.697Z,124.80
2022-12-23T15:10:33.274Z,127.50
2022-12-23T15:11:35.394Z,135.48
2022-12-23T15:12:37.876Z,125.55
2022-12-23T15:13:38.926Z,126.28
2022-12-23T15:14:44.216Z,118.15
2022-12-23T15:15:54.577Z,137.73
2022-12-23T15:16:58.689Z,131.88
2022-12-23T15:18:03.067Z,123.25
2022-12-23T15:19:15.974Z,124.47
2022-12-23T15:20:19.099Z,119.90
2022-12-23T15:21:20.344Z,120.00
2022-12-23T15:22:28.521Z,114.80
2022-12-23T15:23:33.383Z,109.90
2022-12-23T15:24:34.245Z,108.55
2022-12-23T15:25:38.883Z,110.63
2022-12-23T15:26:51.866Z,108.15
2022-12-23T15:28:02.578Z,108.93
2022-12-23T15:29:06.677Z,113.38
2022-12-23T15:30:11.073Z,119.35
2022-12-23T15:31:22.027Z,106.45
2022-12-23T15:32:23.895Z,106.20
2022-12-23T15:34:01.681Z,103.50
2022-12-23T15:34:50.654Z,105.78
2022-12-23T15:35:51.860Z,112.07
2022-12-23T15:36:54.133Z,111.90
2022-12-23T15:37:55.661Z,115.20
2022-12-23T15:38:57.609Z,122.45
2022-12-23T15:41:13.319Z,107.40
2022-12-23T15:42:22.661Z,110.82
2022-12-23T15:43:23.517Z,105.00
2022-12-23T15:44:26.327Z,115.60
2022-12-23T15:45:31.847Z,105.85
2022-12-23T15:46:33.686Z,104.90
2022-12-23T15:47:37.888Z,109.25
2022-12-23T15:48:39.702Z,106.40
2022-12-23T15:49:40.568Z,114.68
2022-12-23T15:50:42.737Z,123.80
2022-12-23T15:53:06.967Z,123.03
2022-12-23T15:54:08.732Z,125.47
2022-12-23T15:55:11.996Z,125.10
2022-12-23T15:56:19.016Z,127.93
2022-12-23T15:57:21.486Z,120.28
2022-12-23T15:58:23.703Z,113.30
2022-12-23T15:59:27.148Z,114.35
2022-12-23T16:00:30.656Z,118.45
2022-12-23T16:01:36.778Z,119.13
2022-12-23T16:03:00.307Z,122.43
2022-12-23T16:04:03.543Z,126.97
2022-12-23T16:05:05.116Z,116.03
2022-12-23T16:06:07.485Z,116.85
2022-12-23T16:07:22.516Z,122.97
2022-12-23T16:08:29.162Z,120.43
2022-12-23T16:09:33.713Z,121.00
2022-12-23T16:10:34.682Z,118.93
2022-12-23T16:11:37.478Z,137.07
2022-12-23T16:12:39.515Z,144.88
2022-12-23T16:14:50.184Z,137.82
2022-12-23T16:15:51.127Z,142.90
2022-12-23T16:16:57.566Z,148.23
2022-12-23T16:18:11.132Z,140.48
2022-12-23T16:19:27.142Z,128.18
2022-12-23T16:20:28.410Z,132.63
2022-12-23T16:21:30.455Z,133.73
2022-12-23T16:23:34.002Z,130.93
2022-12-23T16:24:35.286Z,124.93
2022-12-23T16:25:36.755Z,120.53
2022-12-23T16:26:39.324Z,115.80
2022-12-23T16:27:42.513Z,110.10
2022-12-23T16:28:44.895Z,114.00
2022-12-23T16:29:47.330Z,110.47
2022-12-23T16:30:51.280Z,116.05
2022-12-23T16:32:01.273Z,113.22
2022-12-23T16:33:04.145Z,118.85
2022-12-23T16:34:06.524Z,123.47
2022-12-23T16:35:11.756Z,115.82
2022-12-23T16:36:21.282Z,122.68
2022-12-23T16:37:22.216Z,120.57
2022-12-23T16:38:24.111Z,105.60
2022-12-23T16:39:24.944Z,123.15
2022-12-23T16:40:26.135Z,116.37
2022-12-23T16:41:27.076Z,125.43
2022-12-23T16:42:28.279Z,124.63
2022-12-23T16:43:30.174Z,125.65
2022-12-23T16:44:31.389Z,124.57
2022-12-23T16:45:33.232Z,121.15
2022-12-23T16:46:36.698Z,116.35
2022-12-23T16:47:38.223Z,122.20
2022-12-23T16:48:40.312Z,116.22
2022-12-23T16:50:42.243Z,109.55
2022-12-23T16:51:43.421Z,109.07
2022-12-23T16:52:44.276Z,111.38
2022-12-23T16:53:45.605Z,106.63
2022-12-23T16:54:46.460Z,104.93
2022-12-23T16:55:53.683Z,99.10
2022-12-23T16:56:59.668Z,106.07
2022-12-23T16:58:00.550Z,106.55
2022-12-23T16:59:01.917Z,101.45
2022-12-23T17:00:03.008Z,102.40
2022-12-23T17:01:04.266Z,108.72
2022-12-23T17:02:14.774Z,101.47
2022-12-23T17:03:18.072Z,99.60
2022-12-23T17:04:19.225Z,111.78
2022-12-23T17:05:21.693Z,110.95
2022-12-23T17:06:23.331Z,106.35
2022-12-23T17:07:25.744Z,108.93
2022-12-23T17:08:26.588Z,112.00
2022-12-23T17:09:27.742Z,108.10
2022-12-23T17:10:28.642Z,112.13
2022-12-23T17:11:34.174Z,114.90
2022-12-23T17:12:35.995Z,114.82
2022-12-23T17:13:38.310Z,114.70
2022-12-23T17:14:39.337Z,111.82
2022-12-23T17:15:40.505Z,117.30
2022-12-23T17:16:41.479Z,110.32
2022-12-23T17:17:42.783Z,116.07
2022-12-23T17:18:44.590Z,107.18
2022-12-23T17:19:45.696Z,107.45
2022-12-23T17:20:47.880Z,107.50
2022-12-23T17:21:52.623Z,107.50
2022-12-23T17:22:55.055Z,109.05
2022-12-23T17:23:59.610Z,103.25
2022-12-23T17:25:00.856Z,105.20
2022-12-23T17:26:01.694Z,113.07
2022-12-23T17:27:09.556Z,110.63
2022-12-23T17:28:10.560Z,106.20
2022-12-23T17:29:12.064Z,114.50
2022-12-23T17:30:14.175Z,111.78
2022-12-23T17:31:22.407Z,106.80
2022-12-23T17:32:27.528Z,114.70
2022-12-23T17:33:29.240Z,104.78
2022-12-23T17:34:31.055Z,111.18
2022-12-23T17:35:31.911Z,113.43
2022-12-23T17:36:33.084Z,110.17
2022-12-23T17:37:34.427Z,104.72
2022-12-23T17:38:35.647Z,110.93
2022-12-23T17:39:36.484Z,123.35
2022-12-23T17:40:37.967Z,105.47
2022-12-23T17:41:39.809Z,110.03
2022-12-23T17:42:41.278Z,109.47
2022-12-23T17:43:42.832Z,117.78
2022-12-23T17:44:43.983Z,109.05
2022-12-23T17:45:44.834Z,102.47
2022-12-23T17:46:46.618Z,112.90
2022-12-23T17:47:47.516Z,109.25
2022-12-23T17:48:48.787Z,106.20
2022-12-23T17:49:50.359Z,100.80
2022-12-23T17:50:51.623Z,117.18
2022-12-23T17:51:52.475Z,111.75
2022-12-23T17:52:54.030Z,115.43
2022-12-23T17:53:57.749Z,113.18
2022-12-23T17:54:59.437Z,107.90
2022-12-23T17:56:00.277Z,107.60
2022-12-23T17:57:01.436Z,108.22
2022-12-23T17:58:02.297Z,104.00
2022-12-23T17:59:03.478Z,111.82
2022-12-23T18:00:04.818Z,111.40
2022-12-23T18:01:06.238Z,116.82
2022-12-23T18:02:15.058Z,123.80
2022-12-23T18:03:20.699Z,122.00
2022-12-23T18:04:22.237Z,115.22
2022-12-23T18:05:25.335Z,119.88
2022-12-23T18:06:27.846Z,110.22
2022-12-23T18:07:28.669Z,120.07
2022-12-23T18:08:30.025Z,112.00
2022-12-23T18:09:30.959Z,120.90
2022-12-23T18:10:33.367Z,127.83
2022-12-23T18:11:35.682Z,125.05
2022-12-23T18:12:37.636Z,127.55
2022-12-23T18:14:39.449Z,130.25
2022-12-23T18:15:41.996Z,138.23
2022-12-23T18:16:43.044Z,137.13
2022-12-23T18:17:44.270Z,131.35
2022-12-23T18:18:46.923Z,130.02
2022-12-23T18:19:48.418Z,115.95
2022-12-23T18:20:50.942Z,126.00
2022-12-23T18:21:52.301Z,119.40
2022-12-23T18:22:53.773Z,127.82
2022-12-23T18:23:56.529Z,129.20
2022-12-23T18:24:59.556Z,120.13
2022-12-23T18:26:01.025Z,125.07
2022-12-23T18:27:05.682Z,119.05
2022-12-23T18:28:07.033Z,121.85
2022-12-23T18:29:07.982Z,123.82
2022-12-23T18:30:09.852Z,120.85
2022-12-23T18:31:14.177Z,125.03
2022-12-23T18:32:20.058Z,116.78
2022-12-23T18:33:21.236Z,122.68
2022-12-23T18:34:22.352Z,122.82
2022-12-23T18:35:25.222Z,124.95
2022-12-23T18:36:29.601Z,125.60
2022-12-23T18:37:31.592Z,126.57
2022-12-23T18:39:33.396Z,122.22
2022-12-23T18:40:34.587Z,131.02
2022-12-23T18:41:35.472Z,127.72
2022-12-23T18:42:36.609Z,128.93
2022-12-23T18:43:37.900Z,131.82
2022-12-23T18:44:39.131Z,129.23
2022-12-23T18:45:41.209Z,125.25
2022-12-23T18:47:43.113Z,121.63
2022-12-23T18:48:44.246Z,129.73
2022-12-23T18:49:45.399Z,124.30
2022-12-23T18:50:46.327Z,125.40
2022-12-23T18:51:48.157Z,119.13
2022-12-23T18:52:49.029Z,124.75
2022-12-23T18:53:50.158Z,122.90
2022-12-23T18:54:52.705Z,127.97
2022-12-23T18:55:54.378Z,123.97
2022-12-23T18:56:55.295Z,132.25
2022-12-23T18:57:57.065Z,126.90
2022-12-23T18:58:57.915Z,125.22
2022-12-23T18:59:59.061Z,128.23
2022-12-23T19:01:00.590Z,114.53
2022-12-23T19:02:01.884Z,130.30
2022-12-23T19:03:03.753Z,128.45
2022-12-23T19:04:05.060Z,125.32
2022-12-23T19:05:06.723Z,139.55
2022-12-23T19:06:08.923Z,132.27
2022-12-23T19:07:11.858Z,130.80
2022-12-23T19:08:13.016Z,126.30
2022-12-23T19:09:15.268Z,127.00
2022-12-23T19:10:17.390Z,129.23
2022-12-23T19:11:20.241Z,135.38
2022-12-23T19:12:21.231Z,131.60
2022-12-23T19:13:22.494Z,140.50
2022-12-23T19:14:23.644Z,123.82
2022-12-23T19:15:24.588Z,120.90
2022-12-23T19:16:26.330Z,121.72
2022-12-23T19:17:27.300Z,116.03
2022-12-23T19:18:28.432Z,120.05
2022-12-23T19:19:29.300Z,117.13
2022-12-23T19:20:30.799Z,122.00
2022-12-23T19:21:31.713Z,119.30
2022-12-23T19:22:33.532Z,109.50
2022-12-23T19:23:34.390Z,115.90
2022-12-23T19:24:35.560Z,123.50
2022-12-23T19:25:36.408Z,116.97
2022-12-23T19:26:37.592Z,117.68
2022-12-23T19:27:39.192Z,118.20
2022-12-23T19:28:40.715Z,116.18
2022-12-23T19:29:42.168Z,116.53
2022-12-23T19:30:43.387Z,113.55
2022-12-23T19:31:44.271Z,116.15
2022-12-23T19:32:45.396Z,117.50
2022-12-23T19:33:46.413Z,117.43
2022-12-23T19:34:47.604Z,122.10
2022-12-23T19:35:48.474Z,114.15
2022-12-23T19:36:49.707Z,113.72
2022-12-23T19:37:51.286Z,109.22
2022-12-23T19:38:55.311Z,112.18
2022-12-23T19:39:56.197Z,114.68
2022-12-23T19:40:57.616Z,113.20
2022-12-23T19:41:58.532Z,121.32
2022-12-23T19:42:59.769Z,114.80
2022-12-23T19:44:00.624Z,119.07
2022-12-23T19:45:01.794Z,116.03
2022-12-23T19:46:03.434Z,118.10
2022-12-23T19:47:04.973Z,115.65
2022-12-23T19:48:05.837Z,116.13
2022-12-23T19:49:06.988Z,124.57
2022-12-23T19:50:08.259Z,124.88
2022-12-23T19:51:10.496Z,124.07
2022-12-23T19:52:11.389Z,117.07
2022-12-23T19:53:14.457Z,123.43
2022-12-23T19:54:15.348Z,113.18
2022-12-23T19:55:16.550Z,114.90
2022-12-23T19:56:20.378Z,112.93
2022-12-23T19:57:22.663Z,104.07
2022-12-23T19:58:23.580Z,107.85
2022-12-23T19:59:24.777Z,109.37
2022-12-23T20:00:25.632Z,110.20
2022-12-23T20:01:27.188Z,108.90
2022-12-23T20:02:28.157Z,112.20
2022-12-23T20:03:29.421Z,106.50
2022-12-23T20:04:31.268Z,114.38
2022-12-23T20:05:32.187Z,110.13
2022-12-23T20:06:34.162Z,102.50
2022-12-23T20:08:36.627Z,111.15
2022-12-23T20:09:37.799Z,109.78
2022-12-23T20:10:39.010Z,115.53
2022-12-23T20:11:40.740Z,117.90
2022-12-23T20:12:41.908Z,113.85
2022-12-23T20:13:42.790Z,115.18
2022-12-23T20:14:43.936Z,119.13
2022-12-23T20:15:44.880Z,110.30
2022-12-23T20:16:47.602Z,120.07
2022-12-23T20:17:48.493Z,109.35
2022-12-23T20:18:49.703Z,116.67
2022-12-23T20:19:50.559Z,114.75
2022-12-23T20:20:51.952Z,112.80
2022-12-23T20:21:53.149Z,108.50
2022-12-23T20:22:54.020Z,110.68
2022-12-23T20:23:55.794Z,113.90
2022-12-23T20:24:58.648Z,109.93
2022-12-23T20:25:59.517Z,115.50
2022-12-23T20:27:00.678Z,111.67
2022-12-23T20:28:01.566Z,111.43
2022-12-23T20:29:02.869Z,108.33
2022-12-23T20:30:04.096Z,114.90
2022-12-23T20:31:06.981Z,105.82
2022-12-23T20:32:08.166Z,112.50
2022-12-23T20:33:09.228Z,119.68
2022-12-23T20:34:13.074Z,109.43
2022-12-23T20:35:13.964Z,122.72
2022-12-23T20:36:16.602Z,111.87
2022-12-23T20:37:17.477Z,115.22
2022-12-23T20:38:18.624Z,118.63
2022-12-23T20:39:20.118Z,122.38
2022-12-23T20:40:21.319Z,129.02
2022-12-23T20:41:23.859Z,120.25
2022-12-23T20:42:26.384Z,125.97
2022-12-23T20:43:27.249Z,118.60
2022-12-23T20:44:36.991Z,126.40
2022-12-23T20:45:40.549Z,110.57
2022-12-23T20:46:41.815Z,112.72
2022-12-23T20:47:42.718Z,114.63
2022-12-23T20:48:44.048Z,121.27
2022-12-23T20:49:45.188Z,116.68
2022-12-23T20:50:46.092Z,105.90
